YGCR weather

Gloucester Airport
New South Wales, Australia

Public forecast

Using degrees Celsius for public forecast. Weather courtesy of forecast.io.

Closest aviation weather report (METAR) to Gloucester Airport

Closest report is Taree Airport, 28.7 nm (53.2 km) ENE. Retrieved 2019/10/16 18:30 UTC (26 minutes ago):

YTRE 161830Z AUTO 29004KT 0150 -SHRA OVC001 17/17 Q1006

Closest aviation forecast (TAF) to Gloucester Airport

Closest forecast is Taree Airport, 28.7 nm (53.2 km) ENE. Retrieved 2019/10/16 14:00 UTC (5 hours ago):

TAF YTRE 161251Z 1614/1702 VRB03KT 9999 -SHRA SCT014 FM161600 VRB03KT 9999 NSW SCT010 FM170000 27014KT CAVOK PROB30 1614/1622 0500 FG BKN001